Time;durP1;ratioP1;P1;durP2;ratioP2;P2;SDS_P1;SDS_P2;PMS_P1;PMS_P2;Temp;Humidity;BMP_temperature;BMP_pressure;BME280_temperature;BME280_humidity;BME280_pressure;Samples;Min_cycle;Max_cycle;Signal;HPM_P1;HPM_P2
2023/09/12 00:00:43;;;;;;;19.63;10.90;;;17.80;99.90;;;;;;1927513;73;25160;-90
2023/09/12 00:03:35;;;;;;;22.40;11.17;;;17.80;99.90;;;;;;1927436;73;25178;-89
2023/09/12 00:09:06;;;;;;;25.27;11.93;;;17.70;99.90;;;;;;1981122;71;27021;-90
2023/09/12 00:11:55;;;;;;;24.43;11.77;;;17.60;99.90;;;;;;1951863;72;25294;-90
2023/09/12 00:14:44;;;;;;;20.37;12.07;;;17.70;99.90;;;;;;1897268;75;25229;-90
2023/09/12 00:17:33;;;;;;;25.57;11.27;;;17.80;99.90;;;;;;1910736;74;25303;-90
2023/09/12 00:23:09;;;;;;;27.20;12.97;;;17.70;99.90;;;;;;1887893;75;27719;-89
2023/09/12 00:25:58;;;;;;;25.00;13.30;;;17.60;99.90;;;;;;1852776;76;25177;-90
2023/09/12 00:28:47;;;;;;;30.00;12.93;;;17.60;99.90;;;;;;1843979;76;25317;-89
2023/09/12 00:31:36;;;;;;;30.03;14.07;;;17.60;99.90;;;;;;1858050;76;25950;-90
2023/09/12 00:34:25;;;;;;;30.77;14.73;;;17.60;99.90;;;;;;1845995;76;25788;-89
2023/09/12 00:37:13;;;;;;;31.03;15.10;;;17.70;99.90;;;;;;1844710;76;25225;-89
2023/09/12 00:40:02;;;;;;;28.93;15.17;;;17.60;99.90;;;;;;1847237;76;25267;-90
2023/09/12 00:45:37;;;;;;;34.30;16.90;;;17.70;99.90;;;;;;1938141;72;27428;-90
2023/09/12 00:48:26;;;;;;;41.03;19.47;;;17.70;99.90;;;;;;1898180;75;25301;-90
2023/09/12 00:54:09;;;;;;;39.17;19.60;;;17.70;99.90;;;;;;1942751;72;27066;-90
2023/09/12 00:56:58;;;;;;;38.50;18.87;;;17.70;99.90;;;;;;1929381;73;25165;-90
2023/09/12 00:59:48;;;;;;;39.17;19.10;;;17.70;99.90;;;;;;1916450;73;25154;-90
2023/09/12 01:02:36;;;;;;;37.07;19.63;;;17.70;99.90;;;;;;1925793;73;25296;-90
2023/09/12 01:05:25;;;;;;;40.70;20.00;;;17.80;99.90;;;;;;1916188;73;25265;-90
2023/09/12 01:11:10;;;;;;;39.83;21.27;;;17.90;99.90;;;;;;1953595;72;28255;-90
2023/09/12 01:13:59;;;;;;;48.53;22.77;;;17.90;99.90;;;;;;1928213;73;25217;-90
2023/09/12 01:16:47;;;;;;;48.13;21.77;;;17.90;99.90;;;;;;1920694;73;25199;-90
2023/09/12 01:19:36;;;;;;;48.03;23.03;;;17.90;99.90;;;;;;1919006;73;25769;-90
2023/09/12 01:22:52;;;;;;;44.80;23.07;;;17.90;99.90;;;;;;1928862;73;25666;-90
2023/09/12 01:29:44;;;;;;;49.93;21.93;;;17.90;99.90;;;;;;2003233;71;29006;-90
2023/09/12 01:32:34;;;;;;;48.57;21.93;;;17.90;99.90;;;;;;2062867;69;25175;-89
2023/09/12 01:35:23;;;;;;;42.43;20.47;;;17.80;99.90;;;;;;2044656;69;25132;-90
2023/09/12 01:38:11;;;;;;;35.67;18.37;;;17.80;99.90;;;;;;2043359;69;25216;-90
2023/09/12 01:41:00;;;;;;;37.80;18.07;;;17.90;99.90;;;;;;2025376;69;25658;-90
2023/09/12 01:57:21;;;;;;;32.57;16.57;;;17.80;99.90;;;;;;1948334;72;27058;-90
2023/09/12 02:02:54;;;;;;;28.60;17.37;;;17.70;99.90;;;;;;1969193;71;27890;-90
2023/09/12 02:05:44;;;;;;;35.23;17.77;;;17.60;99.90;;;;;;1905134;75;25696;-90
2023/09/12 02:08:32;;;;;;;32.27;17.73;;;17.60;99.90;;;;;;1861428;75;25320;-91
2023/09/12 02:11:21;;;;;;;36.73;17.27;;;17.60;99.90;;;;;;1865834;76;25290;-90
2023/09/12 02:14:11;;;;;;;35.23;17.93;;;17.60;99.90;;;;;;1847175;77;25232;-91
2023/09/12 02:16:59;;;;;;;36.07;17.23;;;17.60;99.90;;;;;;1871326;75;25740;-90
2023/09/12 02:22:36;;;;;;;28.50;17.33;;;17.60;99.90;;;;;;1936961;72;27041;-90
2023/09/12 02:25:26;;;;;;;37.27;16.97;;;17.60;99.90;;;;;;1898051;75;25269;-90
2023/09/12 02:31:02;;;;;;;30.23;16.90;;;17.60;99.90;;;;;;1943777;72;26990;-90
2023/09/12 02:33:52;;;;;;;36.97;16.93;;;17.70;99.90;;;;;;1935465;73;25702;-90
2023/09/12 02:36:40;;;;;;;31.90;17.13;;;17.60;99.90;;;;;;1943043;73;25228;-90
2023/09/12 02:42:24;;;;;;;30.77;16.40;;;17.60;99.90;;;;;;1950567;72;26951;-90
2023/09/12 02:45:13;;;;;;;29.23;16.17;;;17.50;99.90;;;;;;1909382;74;25754;-90
2023/09/12 02:48:01;;;;;;;31.17;16.53;;;17.50;99.90;;;;;;1911903;74;25275;-90
2023/09/12 02:50:51;;;;;;;33.93;16.13;;;17.50;99.90;;;;;;1903887;75;25249;-90
2023/09/12 02:56:32;;;;;;;32.53;15.63;;;17.60;99.90;;;;;;1946775;72;27088;-90
2023/09/12 02:59:21;;;;;;;29.93;15.63;;;17.50;99.90;;;;;;1924885;73;25225;-90
2023/09/12 03:04:56;;;;;;;33.50;16.40;;;17.50;99.90;;;;;;1930857;72;28429;-90
2023/09/12 03:07:47;;;;;;;32.97;17.83;;;17.50;99.90;;;;;;1903434;75;25891;-90
2023/09/12 03:10:37;;;;;;;38.43;17.23;;;17.50;99.90;;;;;;1912524;74;25210;-91
2023/09/12 03:13:27;;;;;;;40.43;17.23;;;17.50;99.90;;;;;;1897581;74;25264;-90
2023/09/12 03:19:02;;;;;;;31.40;16.37;;;17.50;99.90;;;;;;1955730;71;26952;-89
2023/09/12 03:21:51;;;;;;;36.50;17.73;;;17.40;99.90;;;;;;1931503;72;25225;-89
2023/09/12 03:24:39;;;;;;;35.30;16.67;;;17.50;99.90;;;;;;1908174;73;25157;-90
2023/09/12 03:27:28;;;;;;;30.13;16.43;;;17.50;99.90;;;;;;1920701;74;25179;-90
2023/09/12 03:30:17;;;;;;;32.87;16.83;;;17.50;99.90;;;;;;1923219;73;25643;-90
2023/09/12 03:35:52;;;;;;;37.20;18.97;;;17.50;99.90;;;;;;1933520;72;27209;-89
2023/09/12 03:38:41;;;;;;;39.40;19.13;;;17.40;99.90;;;;;;1909975;73;25210;-90
2023/09/12 03:41:30;;;;;;;39.40;20.03;;;17.40;99.90;;;;;;1907868;73;25192;-89
2023/09/12 03:44:20;;;;;;;41.80;20.20;;;17.50;99.90;;;;;;1901968;75;25210;-89
2023/09/12 03:47:09;;;;;;;41.57;19.93;;;17.40;99.90;;;;;;1900448;75;25178;-90
2023/09/12 03:52:38;;;;;;;50.17;21.67;;;17.50;99.90;;;;;;1937896;72;27009;-90
2023/09/12 03:55:28;;;;;;;65.87;24.23;;;17.40;99.90;;;;;;1905719;75;25742;-89
2023/09/12 03:58:17;;;;;;;52.60;23.07;;;17.40;99.90;;;;;;1913448;74;25258;-89
2023/09/12 04:01:06;;;;;;;53.57;25.17;;;17.30;99.90;;;;;;1898454;74;25819;-90
2023/09/12 04:03:55;;;;;;;59.40;25.53;;;17.40;99.90;;;;;;1914695;74;25654;-90
2023/09/12 04:12:08;;;;;;;75.73;30.40;;;17.40;99.90;;;;;;1978249;71;27170;-91
2023/09/12 04:14:58;;;;;;;72.37;29.87;;;17.40;99.90;;;;;;1971164;72;25198;-91
2023/09/12 04:21:30;;;;;;;83.30;30.80;;;17.40;99.90;;;;;;2012544;69;25325;-91
2023/09/12 04:24:18;;;;;;;91.53;32.37;;;17.40;99.90;;;;;;2046502;69;25231;-91
2023/09/12 04:27:09;;;;;;;97.53;32.00;;;17.40;99.90;;;;;;1990857;71;25374;-91
2023/09/12 04:30:01;;;;;;;92.93;33.43;;;17.30;99.90;;;;;;1952110;71;25741;-91
2023/09/12 04:32:51;;;;;;;99.17;34.60;;;17.40;99.90;;;;;;1964131;71;25233;-91
2023/09/12 04:35:42;;;;;;;104.00;35.10;;;17.40;99.90;;;;;;2043162;69;25609;-91
2023/09/12 04:38:33;;;;;;;92.30;34.10;;;17.30;99.90;;;;;;2051430;69;25743;-91
2023/09/12 04:41:22;;;;;;;98.97;34.73;;;17.30;99.90;;;;;;2029970;69;25769;-91
2023/09/12 04:44:13;;;;;;;102.77;35.03;;;17.30;99.90;;;;;;2028334;70;25269;-91
2023/09/12 04:47:06;;;;;;;94.10;36.87;;;17.30;99.90;;;;;;2023579;69;25208;-91
2023/09/12 04:49:55;;;;;;;92.37;36.07;;;17.40;99.90;;;;;;2021684;69;25231;-91
2023/09/12 04:52:44;;;;;;;99.57;34.80;;;17.40;99.90;;;;;;2020464;70;25741;-91
2023/09/12 04:55:40;;;;;;;94.50;37.47;;;17.40;99.90;;;;;;1974086;70;25765;-90
2023/09/12 04:58:30;;;;;;;108.87;37.10;;;17.40;99.90;;;;;;2020635;69;25245;-91
2023/09/12 05:17:25;;;;;;;108.93;38.80;;;17.40;99.90;;;;;;1953531;72;27429;-89
2023/09/12 05:20:16;;;;;;;109.40;38.90;;;17.50;99.90;;;;;;1935456;73;25238;-90
2023/09/12 05:23:04;;;;;;;117.87;40.70;;;17.50;99.90;;;;;;1938192;72;25147;-90
2023/09/12 05:25:53;;;;;;;112.00;39.73;;;17.50;99.90;;;;;;1923626;73;25216;-90
2023/09/12 05:28:42;;;;;;;111.40;40.87;;;17.50;99.90;;;;;;1934351;72;25242;-90
2023/09/12 05:31:31;;;;;;;134.40;41.80;;;17.50;99.90;;;;;;1927310;73;25244;-89
2023/09/12 05:37:32;;;;;;;114.87;41.93;;;17.50;99.90;;;;;;2009132;69;26174;-89
2023/09/12 05:40:21;;;;;;;115.83;40.60;;;17.60;99.90;;;;;;1930655;73;25765;-89
2023/09/12 05:56:47;;;;;;;115.77;39.83;;;17.60;99.90;;;;;;1978054;71;27287;-89
2023/09/12 06:02:25;;;;;;;106.73;37.97;;;17.90;99.90;;;;;;1951934;72;27382;-89
2023/09/12 06:08:42;;;;;;;103.17;36.90;;;18.00;99.90;;;;;;1924844;73;25720;-89
2023/09/12 06:11:31;;;;;;;89.30;36.33;;;18.10;99.90;;;;;;1922412;73;25246;-90
2023/09/12 06:14:23;;;;;;;94.77;36.93;;;18.10;99.90;;;;;;1937669;73;25867;-89
2023/09/12 06:17:12;;;;;;;94.23;35.63;;;18.10;99.90;;;;;;1919118;73;25234;-90
2023/09/12 06:20:06;;;;;;;87.00;34.47;;;18.10;99.90;;;;;;1920637;73;25279;-89
2023/09/12 06:22:54;;;;;;;83.47;34.07;;;18.10;99.90;;;;;;1887298;75;25244;-89
2023/09/12 06:39:15;;;;;;;67.57;27.03;;;18.20;99.90;;;;;;1904694;74;27687;-90
2023/09/12 06:45:26;;;;;;;46.80;23.30;;;18.30;99.90;;;;;;1981267;71;26744;-89
2023/09/12 06:48:15;;;;;;;41.33;21.83;;;18.40;99.90;;;;;;2018277;69;25196;-90
2023/09/12 06:51:07;;;;;;;47.77;20.27;;;18.50;99.90;;;;;;2006908;70;25703;-91
2023/09/12 06:53:56;;;;;;;34.23;16.53;;;18.70;99.90;;;;;;2014906;70;25624;-90
2023/09/12 06:56:45;;;;;;;25.30;14.27;;;18.90;99.90;;;;;;1952010;73;25335;-91
2023/09/12 07:03:24;;;;;;;34.07;14.70;;;19.50;99.90;;;;;;1983445;71;27010;-91
2023/09/12 07:06:15;;;;;;;28.13;15.60;;;19.50;99.90;;;;;;2014779;70;25237;-90
2023/09/12 07:09:06;;;;;;;37.60;15.37;;;19.40;99.90;;;;;;2028934;70;25188;-90
2023/09/12 07:11:57;;;;;;;30.50;15.97;;;19.30;99.90;;;;;;2017644;70;25221;-91
2023/09/12 07:18:12;;;;;;;27.53;14.23;;;19.10;99.90;;;;;;1971468;71;27436;-90
2023/09/12 07:21:02;;;;;;;30.73;13.13;;;19.00;99.90;;;;;;1915220;73;25199;-90
2023/09/12 07:23:51;;;;;;;25.23;12.17;;;19.00;99.90;;;;;;2017486;70;25231;-90
2023/09/12 07:26:42;;;;;;;19.47;11.03;;;19.10;99.90;;;;;;2028206;70;25224;-90
2023/09/12 07:30:13;;;;;;;21.93;10.50;;;19.20;99.90;;;;;;2026732;70;25570;-90
2023/09/12 07:33:15;;;;;;;17.07;9.33;;;19.20;99.90;;;;;;2004931;70;25679;-90
2023/09/12 07:36:09;;;;;;;15.50;9.93;;;19.20;99.90;;;;;;2022193;70;25224;-91
2023/09/12 07:39:57;;;;;;;17.90;9.47;;;19.20;99.90;;;;;;2019815;70;25699;-92
2023/09/12 07:43:20;;;;;;;18.13;8.70;;;19.20;99.90;;;;;;2011176;70;25241;-91
2023/09/12 07:46:22;;;;;;;10.33;7.67;;;19.40;99.90;;;;;;1998876;70;25671;-92
2023/09/12 07:52:25;;;;;;;10.43;6.33;;;19.40;99.90;;;;;;2023460;70;25182;-91
2023/09/12 07:55:45;;;;;;;8.30;5.40;;;19.50;99.90;;;;;;1978945;70;25777;-92
2023/09/12 08:48:46;;;;;;;8.53;4.70;;;20.20;99.90;;;;;;1934240;73;27141;-92
2023/09/12 09:05:39;;;;;;;7.87;4.20;;;21.00;99.90;;;;;;2009270;70;26836;-91
2023/09/12 10:49:25;;;;;;;6.47;3.37;;;19.50;99.90;;;;;;1922422;73;26372;-91
2023/09/12 10:52:55;;;;;;;7.60;3.10;;;20.30;99.90;;;;;;1909539;73;25239;-93
2023/09/12 11:38:54;;;;;;;4.93;2.30;;;19.90;99.90;;;;;;1949835;72;27420;-91
2023/09/12 11:41:53;;;;;;;7.83;2.10;;;20.00;99.90;;;;;;1925457;73;25306;-91
2023/09/12 11:44:47;;;;;;;5.67;1.80;;;20.10;99.90;;;;;;1912801;74;25218;-91
2023/09/12 11:47:43;;;;;;;4.40;1.70;;;20.10;99.90;;;;;;1911910;74;25626;-91
2023/09/12 12:58:52;;;;;;;5.53;2.00;;;20.90;99.90;;;;;;1882707;74;26928;-92
2023/09/12 13:32:02;;;;;;;4.53;1.70;;;20.40;99.90;;;;;;1999212;71;28007;-91
2023/09/12 13:34:51;;;;;;;4.07;1.43;;;20.30;99.90;;;;;;1931785;72;25375;-91
2023/09/12 13:37:41;;;;;;;6.80;1.57;;;20.40;99.90;;;;;;2052952;69;25214;-91
2023/09/12 13:40:29;;;;;;;5.17;1.43;;;20.50;99.90;;;;;;2042686;69;25273;-91
2023/09/12 13:43:28;;;;;;;2.83;1.20;;;20.60;99.90;;;;;;2024364;69;25287;-92
2023/09/12 15:00:37;;;;;;;2.60;0.90;;;19.80;99.90;;;;;;1951080;72;27552;-91
2023/09/12 15:03:27;;;;;;;4.03;0.90;;;19.60;99.90;;;;;;1923044;73;25249;-91
2023/09/12 15:06:17;;;;;;;5.53;0.90;;;19.70;99.90;;;;;;1929887;73;25269;-91
2023/09/12 15:09:07;;;;;;;4.17;1.10;;;19.70;99.90;;;;;;1931374;72;25273;-91
2023/09/12 15:25:10;;;;;;;1.97;0.97;;;19.60;99.90;;;;;;1960954;72;27084;-91
2023/09/12 15:32:29;;;;;;;3.17;1.20;;;19.40;99.90;;;;;;1986509;71;27592;-90
2023/09/12 15:35:20;;;;;;;1.77;0.83;;;19.50;99.90;;;;;;1966520;72;25227;-91
2023/09/12 15:38:13;;;;;;;1.77;0.80;;;19.50;99.90;;;;;;2051804;68;25201;-91
2023/09/12 15:41:07;;;;;;;2.83;1.17;;;19.40;99.90;;;;;;2056422;69;25231;-91
2023/09/12 15:44:00;;;;;;;3.33;1.07;;;19.20;99.90;;;;;;2010861;70;26310;-91
2023/09/12 15:46:54;;;;;;;5.03;1.17;;;19.20;99.90;;;;;;2018890;70;25619;-91
2023/09/12 15:49:44;;;;;;;2.90;1.10;;;19.30;99.90;;;;;;2018804;70;25132;-91
2023/09/12 15:52:51;;;;;;;4.07;1.30;;;19.20;99.90;;;;;;1980388;70;25149;-91
2023/09/12 15:55:41;;;;;;;2.60;0.97;;;19.10;99.90;;;;;;1991000;70;25724;-91
2023/09/12 15:58:30;;;;;;;2.73;1.37;;;19.00;99.90;;;;;;2011577;70;25211;-91
2023/09/12 16:01:19;;;;;;;3.80;1.27;;;19.00;99.90;;;;;;2015338;70;25733;-91
2023/09/12 16:04:10;;;;;;;5.70;1.27;;;19.00;99.90;;;;;;2033356;70;25662;-91
2023/09/12 16:07:00;;;;;;;2.23;1.37;;;19.00;99.90;;;;;;1974687;72;25876;-91
2023/09/12 16:09:49;;;;;;;3.23;1.43;;;19.10;99.90;;;;;;2010622;70;25748;-91
2023/09/12 16:12:39;;;;;;;1.93;1.20;;;19.10;99.90;;;;;;2027851;70;25497;-91
2023/09/12 16:15:28;;;;;;;4.70;1.60;;;19.10;99.90;;;;;;2018080;70;25199;-91
2023/09/12 16:32:18;;;;;;;3.43;1.90;;;19.00;99.90;;;;;;1935949;73;26242;-91
2023/09/12 16:59:53;;;;;;;7.00;2.30;;;19.20;99.90;;;;;;1808559;76;27298;-91
2023/09/12 18:37:12;;;;;;;4.17;2.07;;;16.20;99.90;;;;;;1931066;72;27000;-91
2023/09/12 18:53:28;;;;;;;4.53;2.20;;;15.40;99.90;;;;;;1880077;75;27174;-90
2023/09/12 19:11:23;;;;;;;3.63;2.40;;;14.60;99.90;;;;;;1869644;75;27692;-93
2023/09/12 22:31:32;;;;;;;4.07;2.23;;;13.60;99.90;;;;;;1983115;71;27039;-90
2023/09/12 23:33:59;;;;;;;3.87;1.90;;;13.10;99.90;;;;;;2004514;70;26809;-91
